TimeEST,TemperatureF,Dew PointF,Humidity,Sea Level PressureIn,VisibilityMPH,Wind Direction,Wind SpeedMPH,Gust SpeedMPH,PrecipitationIn,Events,Conditions,WindDirDegrees,DateUTC
12:14 AM,37.4,28.4,70,29.93,5.0,ESE,6.9,-,N/A,,Haze,120,2012-11-07 05:14:00
12:35 AM,37.4,28.4,70,29.93,4.0,ESE,4.6,-,N/A,,Haze,120,2012-11-07 05:35:00
12:55 AM,37.4,28.4,70,29.93,7.0,ESE,5.8,-,N/A,,Mostly Cloudy,110,2012-11-07 05:55:00
1:14 AM,35.6,28.4,75,29.93,7.0,Calm,Calm,-,N/A,,Mostly Cloudy,0,2012-11-07 06:14:00
1:35 AM,35.6,28.4,75,29.93,10.0,Calm,Calm,-,N/A,,Overcast,0,2012-11-07 06:35:00
1:55 AM,35.6,28.4,75,29.93,10.0,Calm,Calm,-,N/A,,Overcast,0,2012-11-07 06:55:00
2:14 AM,35.6,28.4,75,29.93,10.0,Calm,Calm,-,N/A,,Overcast,0,2012-11-07 07:14:00
2:35 AM,35.6,28.4,75,29.93,10.0,Calm,Calm,-,N/A,,Overcast,0,2012-11-07 07:35:00
2:55 AM,35.6,28.4,75,29.94,10.0,ENE,3.5,-,N/A,,Overcast,60,2012-11-07 07:55:00
3:14 AM,35.6,28.4,75,29.93,10.0,ENE,3.5,-,N/A,,Overcast,70,2012-11-07 08:14:00
3:55 AM,33.8,30.2,87,29.94,10.0,Calm,Calm,-,N/A,,Scattered Clouds,0,2012-11-07 08:55:00
4:15 AM,33.8,30.2,87,29.94,10.0,ENE,4.6,-,N/A,,Mostly Cloudy,60,2012-11-07 09:15:00
4:35 AM,35.6,30.2,81,29.94,10.0,ENE,4.6,-,N/A,,Overcast,60,2012-11-07 09:35:00
4:54 AM,35.6,30.2,81,29.95,10.0,ENE,5.8,-,N/A,,Overcast,70,2012-11-07 09:54:00
5:15 AM,35.6,32.0,87,29.95,10.0,ENE,5.8,-,N/A,,Overcast,70,2012-11-07 10:15:00
5:35 AM,35.6,32.0,87,29.96,10.0,ENE,4.6,-,N/A,,Overcast,70,2012-11-07 10:35:00
5:54 AM,35.6,32.0,87,29.96,10.0,East,6.9,-,N/A,,Overcast,90,2012-11-07 10:54:00
6:15 AM,35.6,30.2,81,29.97,10.0,ENE,6.9,-,N/A,,Overcast,70,2012-11-07 11:15:00
6:34 AM,33.8,30.2,87,29.97,10.0,ENE,8.1,-,N/A,,Mostly Cloudy,70,2012-11-07 11:34:00
6:55 AM,33.8,30.2,87,29.98,10.0,ENE,6.9,-,N/A,,Mostly Cloudy,70,2012-11-07 11:55:00
7:15 AM,33.8,30.2,87,29.99,7.0,ENE,5.8,-,N/A,,Mostly Cloudy,60,2012-11-07 12:15:00
7:34 AM,32.0,30.2,93,29.99,7.0,ENE,4.6,-,N/A,,Scattered Clouds,60,2012-11-07 12:34:00
7:55 AM,32.0,28.4,87,30.00,5.0,ENE,6.9,-,N/A,,Clear,70,2012-11-07 12:55:00
8:15 AM,32.0,30.2,93,30.01,7.0,ENE,8.1,-,N/A,,Clear,60,2012-11-07 13:15:00
8:34 AM,33.8,30.2,87,30.01,7.0,ENE,8.1,-,N/A,,Clear,60,2012-11-07 13:34:00
8:55 AM,33.8,30.2,87,30.02,10.0,ENE,9.2,-,N/A,,Clear,60,2012-11-07 13:55:00
9:15 AM,35.6,30.2,81,30.02,10.0,ENE,9.2,-,N/A,,Clear,60,2012-11-07 14:15:00
9:34 AM,37.4,30.2,75,30.02,10.0,East,6.9,-,N/A,,Clear,80,2012-11-07 14:34:00
9:55 AM,37.4,30.2,75,30.03,10.0,East,8.1,-,N/A,,Clear,90,2012-11-07 14:55:00
10:15 AM,39.2,30.2,70,30.04,10.0,ENE,4.6,-,N/A,,Clear,60,2012-11-07 15:15:00
10:34 AM,39.2,32.0,75,30.05,10.0,East,6.9,-,N/A,,Clear,100,2012-11-07 15:34:00
10:55 AM,42.8,32.0,66,30.05,10.0,East,5.8,-,N/A,,Clear,100,2012-11-07 15:55:00
11:15 AM,42.8,32.0,66,30.04,7.0,ENE,8.1,-,N/A,,Clear,70,2012-11-07 16:15:00
11:34 AM,44.6,32.0,61,30.05,7.0,ENE,9.2,-,N/A,,Clear,70,2012-11-07 16:34:00
11:55 AM,44.6,32.0,61,30.05,4.0,East,4.6,-,N/A,,Haze,90,2012-11-07 16:55:00
12:15 PM,44.6,30.2,57,30.04,10.0,ENE,4.6,-,N/A,,Clear,60,2012-11-07 17:15:00
12:34 PM,44.6,32.0,61,30.04,10.0,ENE,8.1,-,N/A,,Clear,60,2012-11-07 17:34:00
12:55 PM,46.4,30.2,53,30.04,10.0,NE,9.2,-,N/A,,Clear,50,2012-11-07 17:55:00
1:15 PM,46.4,30.2,53,30.04,10.0,NE,5.8,-,N/A,,Clear,50,2012-11-07 18:15:00
1:34 PM,46.4,28.4,50,30.03,10.0,NNE,8.1,-,N/A,,Clear,30,2012-11-07 18:34:00
1:55 PM,46.4,30.2,53,30.03,10.0,NE,6.9,-,N/A,,Clear,40,2012-11-07 18:55:00
2:14 PM,46.4,28.4,50,30.03,10.0,NNE,4.6,-,N/A,,Clear,30,2012-11-07 19:14:00
2:35 PM,48.2,28.4,46,30.02,10.0,NE,4.6,-,N/A,,Clear,40,2012-11-07 19:35:00
2:54 PM,46.4,28.4,50,30.03,10.0,NE,8.1,-,N/A,,Clear,40,2012-11-07 19:54:00
3:14 PM,46.4,28.4,50,30.02,10.0,North,3.5,-,N/A,,Clear,10,2012-11-07 20:14:00
3:35 PM,46.4,28.4,50,30.03,7.0,NW,3.5,-,N/A,,Clear,320,2012-11-07 20:35:00
3:54 PM,48.2,28.4,46,30.04,10.0,North,6.9,-,N/A,,Clear,10,2012-11-07 20:54:00
4:15 PM,46.4,28.4,50,30.05,10.0,North,3.5,-,N/A,,Clear,10,2012-11-07 21:15:00
4:39 PM,46.4,28.4,50,30.06,10.0,Calm,Calm,-,N/A,,Clear,0,2012-11-07 21:39:00
4:54 PM,46.4,28.4,50,30.06,10.0,North,3.5,-,N/A,,Clear,10,2012-11-07 21:54:00
5:15 PM,44.6,28.4,53,30.07,10.0,North,3.5,-,N/A,,Clear,360,2012-11-07 22:15:00
5:35 PM,42.8,26.6,53,30.07,10.0,NNW,3.5,-,N/A,,Clear,340,2012-11-07 22:35:00
6:15 PM,42.8,26.6,53,30.08,10.0,Calm,Calm,-,N/A,,Clear,0,2012-11-07 23:15:00
6:34 PM,39.2,26.6,61,30.09,10.0,Calm,Calm,-,N/A,,Clear,0,2012-11-07 23:34:00
6:55 PM,39.2,26.6,61,30.09,10.0,Calm,Calm,-,N/A,,Clear,0,2012-11-07 23:55:00
7:15 PM,39.2,26.6,61,30.10,10.0,Calm,Calm,-,N/A,,Clear,0,2012-11-08 00:15:00
7:34 PM,37.4,26.6,65,30.10,10.0,Calm,Calm,-,N/A,,Clear,0,2012-11-08 00:34:00
7:55 PM,37.4,26.6,65,30.10,10.0,Calm,Calm,-,N/A,,Clear,0,2012-11-08 00:55:00
8:15 PM,35.6,26.6,70,30.11,10.0,North,3.5,-,N/A,,Clear,10,2012-11-08 01:15:00
8:35 PM,37.4,26.6,65,30.11,10.0,NNE,4.6,-,N/A,,Clear,20,2012-11-08 01:35:00
8:55 PM,35.6,26.6,70,30.12,10.0,NNE,4.6,-,N/A,,Clear,20,2012-11-08 01:55:00
9:14 PM,35.6,26.6,70,30.12,10.0,NNE,4.6,-,N/A,,Clear,20,2012-11-08 02:14:00
9:35 PM,35.6,26.6,70,30.12,10.0,NNE,4.6,-,N/A,,Clear,20,2012-11-08 02:35:00
9:55 PM,35.6,26.6,70,30.13,10.0,North,5.8,-,N/A,,Clear,10,2012-11-08 02:55:00
10:14 PM,35.6,26.6,70,30.13,10.0,NNE,5.8,-,N/A,,Clear,30,2012-11-08 03:14:00
10:35 PM,33.8,26.6,75,30.13,10.0,NNE,4.6,-,N/A,,Clear,20,2012-11-08 03:35:00
10:55 PM,33.8,26.6,75,30.13,10.0,ENE,3.5,-,N/A,,Clear,60,2012-11-08 03:55:00
11:14 PM,33.8,26.6,75,30.13,10.0,NE,3.5,-,N/A,,Clear,50,2012-11-08 04:14:00
11:35 PM,33.8,26.6,75,30.13,10.0,NE,3.5,-,N/A,,Clear,40,2012-11-08 04:35:00
11:55 PM,33.8,26.6,75,30.14,10.0,NE,3.5,-,N/A,,Clear,40,2012-11-08 04:55:00